Time;durP1;ratioP1;P1;durP2;ratioP2;P2;SDS_P1;SDS_P2;PMS_P1;PMS_P2;Temp;Humidity;BMP_temperature;BMP_pressure;BME280_temperature;BME280_humidity;BME280_pressure;Samples;Min_cycle;Max_cycle;Signal;HPM_P1;HPM_P2
2021/12/21 00:02:07;;;;;;;254.30;210.45;;;19.30;44.60;;;;;;4744403;55;21005;-34
2021/12/21 00:07:08;;;;;;;260.90;212.35;;;19.40;44.80;;;;;;4772653;54;20994;-35
2021/12/21 00:12:12;;;;;;;248.30;205.07;;;19.40;44.60;;;;;;4741614;54;21013;-31
2021/12/21 00:17:31;;;;;;;253.18;207.50;;;19.30;44.50;;;;;;4747647;55;21571;-30
2021/12/21 00:23:13;;;;;;;251.48;204.87;;;19.40;44.60;;;;;;4784906;55;21113;-34
2021/12/21 00:28:14;;;;;;;250.82;201.93;;;19.30;44.50;;;;;;4745639;55;21505;-29
2021/12/21 00:33:14;;;;;;;242.05;199.27;;;19.30;44.40;;;;;;4777646;54;21073;-35
2021/12/21 00:38:15;;;;;;;236.27;191.88;;;19.30;44.50;;;;;;4742509;54;21524;-33
2021/12/21 00:43:16;;;;;;;237.98;191.18;;;19.30;44.30;;;;;;4771501;54;21057;-27
2021/12/21 00:48:17;;;;;;;238.55;195.70;;;19.30;44.30;;;;;;4744995;55;21001;-32
2021/12/21 00:53:18;;;;;;;241.05;193.75;;;19.30;44.40;;;;;;4746441;55;21010;-32
2021/12/21 00:58:20;;;;;;;237.25;189.52;;;19.30;44.30;;;;;;4753513;55;21100;-32
2021/12/21 01:03:20;;;;;;;238.93;189.25;;;19.30;44.10;;;;;;4740821;55;21070;-35
2021/12/21 01:08:26;;;;;;;230.90;184.75;;;19.30;44.00;;;;;;4751317;54;21049;-34
2021/12/21 01:13:59;;;;;;;227.15;183.10;;;19.30;44.10;;;;;;4767690;55;21062;-33
2021/12/21 01:19:16;;;;;;;227.60;182.07;;;19.30;44.10;;;;;;4748709;55;21442;-32
2021/12/21 01:24:32;;;;;;;232.43;185.80;;;19.30;44.00;;;;;;4757380;55;21185;-30
2021/12/21 01:29:51;;;;;;;223.60;180.73;;;19.30;44.00;;;;;;4745759;55;21460;-32
2021/12/21 01:35:13;;;;;;;225.98;175.62;;;19.30;44.00;;;;;;4743782;55;21583;-32
2021/12/21 01:40:36;;;;;;;220.63;170.73;;;19.30;43.90;;;;;;4784176;55;21555;-27
2021/12/21 01:50:57;;;;;;;215.93;169.00;;;19.30;43.80;;;;;;4741196;55;21026;-33
2021/12/21 01:55:58;;;;;;;213.27;166.25;;;19.30;43.90;;;;;;4797075;54;21014;-34
2021/12/21 02:01:00;;;;;;;215.18;168.13;;;19.30;43.80;;;;;;4744208;55;21069;-36
2021/12/21 02:06:01;;;;;;;207.02;156.32;;;19.30;43.70;;;;;;4741021;58;20997;-32
2021/12/21 02:11:04;;;;;;;209.95;164.65;;;19.30;43.70;;;;;;4742841;55;21025;-30
2021/12/21 02:16:05;;;;;;;206.60;157.43;;;19.30;43.70;;;;;;4749947;55;21060;-34
2021/12/21 02:21:25;;;;;;;202.77;154.82;;;19.30;43.70;;;;;;4753168;55;21009;-33
2021/12/21 02:32:02;;;;;;;199.10;153.55;;;19.30;43.60;;;;;;4741492;55;21152;-35
2021/12/21 02:37:04;;;;;;;203.43;158.20;;;19.30;43.60;;;;;;4805421;55;21124;-33
2021/12/21 02:42:06;;;;;;;202.32;156.68;;;19.30;43.50;;;;;;4765837;55;21555;-34
2021/12/21 02:47:07;;;;;;;194.90;150.15;;;19.30;43.60;;;;;;4757961;55;20998;-33
2021/12/21 02:52:08;;;;;;;198.52;152.45;;;19.30;43.50;;;;;;4827735;55;21053;-36
2021/12/21 02:57:09;;;;;;;192.93;149.12;;;19.30;43.40;;;;;;4760092;54;21074;-34
2021/12/21 03:02:10;;;;;;;188.43;146.98;;;19.30;43.40;;;;;;4780791;54;21009;-34
2021/12/21 03:07:57;;;;;;;187.15;145.43;;;19.30;43.30;;;;;;4779662;54;20991;-33
2021/12/21 03:18:07;;;;;;;183.65;141.55;;;19.30;43.20;;;;;;4753751;55;20112;-32
2021/12/21 03:23:08;;;;;;;182.02;140.75;;;19.30;43.30;;;;;;4744184;54;21656;-35
2021/12/21 03:28:09;;;;;;;180.73;137.37;;;19.20;43.20;;;;;;4744970;54;21065;-33
2021/12/21 03:33:10;;;;;;;180.70;139.37;;;19.20;43.10;;;;;;4771918;54;21032;-33
2021/12/21 03:38:13;;;;;;;178.50;138.20;;;19.30;43.20;;;;;;4740501;58;21556;-32
2021/12/21 03:43:13;;;;;;;174.68;136.15;;;19.20;43.00;;;;;;4751147;55;21547;-36
2021/12/21 03:48:15;;;;;;;171.98;134.73;;;19.30;43.00;;;;;;4760346;54;20997;-35
2021/12/21 03:53:17;;;;;;;176.25;135.27;;;19.20;42.90;;;;;;4740959;55;21499;-34
2021/12/21 03:58:18;;;;;;;168.90;131.60;;;19.20;43.00;;;;;;4740866;55;21584;-35
2021/12/21 04:03:19;;;;;;;168.50;131.12;;;19.20;42.90;;;;;;4741439;58;21066;-34
2021/12/21 04:08:20;;;;;;;166.48;129.80;;;19.20;43.00;;;;;;4741075;55;21037;-32
2021/12/21 04:13:21;;;;;;;171.32;131.68;;;19.20;42.90;;;;;;4774768;55;21016;-35
2021/12/21 04:18:23;;;;;;;166.45;128.98;;;19.20;42.70;;;;;;4742501;54;21086;-35
2021/12/21 04:23:24;;;;;;;161.23;127.03;;;19.20;42.70;;;;;;4753113;55;21603;-33
2021/12/21 04:28:25;;;;;;;154.32;121.20;;;19.20;42.80;;;;;;4755352;54;21013;-35
2021/12/21 04:33:29;;;;;;;157.68;124.38;;;19.20;42.80;;;;;;4743145;54;21576;-34
2021/12/21 04:38:35;;;;;;;152.07;118.28;;;19.20;42.60;;;;;;4747776;55;21114;-33
2021/12/21 04:43:36;;;;;;;153.38;119.75;;;19.20;42.70;;;;;;4751053;55;21532;-29
2021/12/21 04:48:38;;;;;;;152.98;120.13;;;19.20;42.60;;;;;;4760853;55;21089;-33
2021/12/21 04:53:39;;;;;;;144.10;113.65;;;19.20;42.50;;;;;;4810743;55;21025;-28
2021/12/21 04:58:40;;;;;;;149.45;117.62;;;19.20;42.60;;;;;;4767899;55;21013;-35
2021/12/21 05:03:41;;;;;;;145.35;113.75;;;19.20;42.60;;;;;;4752531;55;21017;-33
2021/12/21 05:08:41;;;;;;;143.80;114.72;;;19.20;42.50;;;;;;4751922;54;21033;-31
2021/12/21 05:13:42;;;;;;;144.27;114.55;;;19.20;42.60;;;;;;4757231;54;21146;-36
2021/12/21 05:18:43;;;;;;;143.00;112.97;;;19.20;42.50;;;;;;4806564;55;21097;-36
2021/12/21 05:23:44;;;;;;;140.70;108.90;;;19.20;42.60;;;;;;4752746;54;21653;-37
2021/12/21 05:28:45;;;;;;;142.05;109.53;;;19.20;42.60;;;;;;4747680;54;21096;-34
2021/12/21 05:33:50;;;;;;;136.60;105.12;;;19.20;42.60;;;;;;4761722;55;21029;-34
2021/12/21 05:38:56;;;;;;;135.50;108.65;;;19.20;42.60;;;;;;4749999;55;21460;-34
2021/12/21 05:43:57;;;;;;;134.03;104.90;;;19.20;42.60;;;;;;4745500;55;21574;-35
2021/12/21 05:48:58;;;;;;;136.73;107.43;;;19.20;42.60;;;;;;4745281;54;20994;-35
2021/12/21 05:53:59;;;;;;;138.88;107.95;;;19.20;42.70;;;;;;4746280;55;21484;-31
2021/12/21 05:59:02;;;;;;;133.45;103.80;;;19.20;42.70;;;;;;4741048;55;21017;-35
2021/12/21 06:04:06;;;;;;;131.63;104.32;;;19.20;42.70;;;;;;4741950;55;21085;-33
2021/12/21 06:09:10;;;;;;;131.75;101.90;;;19.20;42.70;;;;;;4740910;58;21065;-35
2021/12/21 06:26:10;;;;;;;129.25;99.37;;;19.20;42.80;;;;;;4740948;55;21697;-35
2021/12/21 06:31:11;;;;;;;128.75;101.00;;;19.10;42.70;;;;;;4741296;57;21500;-34
2021/12/21 06:36:15;;;;;;;125.35;99.40;;;19.20;42.80;;;;;;4767508;55;21072;-34
2021/12/21 06:41:17;;;;;;;125.00;99.07;;;19.20;42.70;;;;;;4769944;55;21591;-35
2021/12/21 06:46:43;;;;;;;128.55;98.25;;;19.20;43.40;;;;;;4746081;55;21013;-33
2021/12/21 06:51:49;;;;;;;122.93;97.75;;;19.10;42.70;;;;;;4753452;55;21994;-35
2021/12/21 06:56:50;;;;;;;124.15;97.80;;;19.10;42.70;;;;;;4760966;55;21006;-35
2021/12/21 07:01:52;;;;;;;125.18;97.62;;;19.10;42.80;;;;;;4741212;58;21010;-36
2021/12/21 07:06:55;;;;;;;119.75;95.38;;;19.20;42.70;;;;;;4765533;55;20990;-34
2021/12/21 07:18:30;;;;;;;117.80;91.65;;;19.10;42.60;;;;;;4764516;55;21073;-31
2021/12/21 07:23:31;;;;;;;123.75;97.88;;;19.10;42.60;;;;;;4749259;55;21620;-33
2021/12/21 07:28:32;;;;;;;116.82;91.22;;;19.10;42.50;;;;;;4746245;55;21096;-32
2021/12/21 07:33:34;;;;;;;121.90;94.90;;;19.10;42.50;;;;;;4751937;55;21053;-36
2021/12/21 07:38:34;;;;;;;124.22;97.53;;;19.10;42.50;;;;;;4740597;58;21567;-35
2021/12/21 07:43:35;;;;;;;118.68;93.72;;;19.10;42.50;;;;;;4779128;55;21037;-35
2021/12/21 07:48:37;;;;;;;119.10;94.28;;;19.10;42.60;;;;;;4744386;55;21054;-34
2021/12/21 07:53:38;;;;;;;124.10;96.57;;;19.10;42.40;;;;;;4740936;58;21544;-28
2021/12/21 07:58:40;;;;;;;125.05;96.63;;;19.10;42.40;;;;;;4741864;55;21026;-35
2021/12/21 08:03:41;;;;;;;123.20;96.12;;;19.10;42.40;;;;;;4776653;55;20973;-35
2021/12/21 08:08:44;;;;;;;122.32;96.50;;;19.10;42.40;;;;;;4747433;55;21026;-35
2021/12/21 08:13:47;;;;;;;131.18;99.68;;;19.10;42.40;;;;;;4746778;55;21598;-35
2021/12/21 08:18:48;;;;;;;129.95;101.15;;;19.20;42.50;;;;;;4761018;55;21484;-34
2021/12/21 08:23:49;;;;;;;126.85;98.40;;;19.10;42.40;;;;;;4741042;58;21145;-31
2021/12/21 08:28:50;;;;;;;129.85;102.45;;;19.10;42.40;;;;;;4759490;54;21980;-34
2021/12/21 08:33:51;;;;;;;188.12;135.30;;;19.20;42.40;;;;;;4747425;54;21176;-35
2021/12/21 08:38:52;;;;;;;197.93;142.35;;;19.10;39.00;;;;;;4746242;55;21025;-33
2021/12/21 08:43:53;;;;;;;214.32;148.20;;;19.10;37.00;;;;;;4745739;54;21483;-34
2021/12/21 08:48:54;;;;;;;215.20;155.63;;;19.10;35.80;;;;;;4749210;55;21563;-32
2021/12/21 08:53:54;;;;;;;215.68;153.70;;;19.00;35.50;;;;;;4755586;55;21006;-33
2021/12/21 08:58:55;;;;;;;225.02;159.68;;;19.00;35.30;;;;;;4772001;54;21021;-33
2021/12/21 09:03:57;;;;;;;226.05;161.20;;;19.00;35.40;;;;;;4786080;54;21571;-35
2021/12/21 09:08:58;;;;;;;227.27;158.18;;;19.00;35.30;;;;;;4755608;55;21491;-30
2021/12/21 09:13:59;;;;;;;244.80;175.75;;;19.00;35.10;;;;;;4741166;58;21099;-35
2021/12/21 09:19:01;;;;;;;231.90;162.65;;;19.00;35.10;;;;;;4780432;54;21014;-34
2021/12/21 09:24:02;;;;;;;232.75;165.30;;;19.10;36.30;;;;;;4757742;55;21594;-30
2021/12/21 09:29:03;;;;;;;219.82;153.00;;;19.10;36.90;;;;;;4774860;55;20989;-36
2021/12/21 09:34:05;;;;;;;220.80;162.45;;;19.20;37.30;;;;;;4748151;55;21117;-34
2021/12/21 09:39:06;;;;;;;220.10;157.52;;;19.30;37.60;;;;;;4746375;55;21137;-29
2021/12/21 09:44:07;;;;;;;222.52;157.93;;;19.30;37.90;;;;;;4750463;55;20986;-35
2021/12/21 09:49:08;;;;;;;212.90;151.32;;;19.40;38.60;;;;;;4742516;58;21483;-34
2021/12/21 09:54:09;;;;;;;216.52;151.60;;;19.40;38.60;;;;;;4754280;55;20990;-36
2021/12/21 09:59:10;;;;;;;216.57;157.48;;;19.40;38.80;;;;;;4745825;55;21369;-33
2021/12/21 10:04:11;;;;;;;205.62;146.32;;;19.50;39.10;;;;;;4741807;58;20997;-33
2021/12/21 10:09:12;;;;;;;212.10;153.48;;;19.50;39.30;;;;;;4777770;55;21602;-29
2021/12/21 10:14:13;;;;;;;215.35;156.12;;;19.50;39.50;;;;;;4747002;54;20998;-34
2021/12/21 10:19:23;;;;;;;211.87;152.38;;;19.60;40.00;;;;;;4741687;58;21045;-36
2021/12/21 10:24:26;;;;;;;213.65;155.35;;;19.70;40.40;;;;;;4750190;55;21045;-36
2021/12/21 10:29:27;;;;;;;208.68;149.43;;;19.90;40.30;;;;;;4757374;55;21101;-33
2021/12/21 10:34:30;;;;;;;214.70;155.87;;;20.10;40.20;;;;;;4802261;54;21010;-37
2021/12/21 10:39:32;;;;;;;264.95;205.68;;;20.20;40.30;;;;;;4742120;55;21662;-35
2021/12/21 10:44:34;;;;;;;552.00;492.87;;;20.40;40.40;;;;;;4741918;58;21641;-35
2021/12/21 10:49:35;;;;;;;546.35;487.83;;;20.50;40.60;;;;;;4742101;55;21089;-34
2021/12/21 10:54:44;;;;;;;526.00;469.17;;;20.60;40.70;;;;;;4741653;58;21018;-36
2021/12/21 11:00:27;;;;;;;495.55;441.02;;;20.70;40.80;;;;;;4769424;55;21069;-35
2021/12/21 11:05:28;;;;;;;486.83;432.92;;;20.70;40.80;;;;;;4742658;54;21061;-35
2021/12/21 11:10:34;;;;;;;476.92;424.23;;;20.80;40.90;;;;;;4741176;58;21002;-35
2021/12/21 11:15:51;;;;;;;458.77;403.60;;;20.90;41.00;;;;;;4748413;55;21646;-37
2021/12/21 11:20:55;;;;;;;641.28;575.12;;;20.90;41.10;;;;;;4744121;55;21069;-35
2021/12/21 11:25:58;;;;;;;677.28;607.15;;;21.00;41.20;;;;;;4759041;55;21550;-34
2021/12/21 11:31:04;;;;;;;664.20;595.53;;;21.10;41.30;;;;;;4740552;58;21475;-34
2021/12/21 11:41:26;;;;;;;621.92;557.58;;;21.20;41.40;;;;;;4750734;55;21108;-34
2021/12/21 11:46:58;;;;;;;608.83;545.67;;;21.20;41.40;;;;;;4762110;55;21001;-38
2021/12/21 11:52:13;;;;;;;596.63;534.85;;;21.30;41.60;;;;;;4756071;55;21467;-35
2021/12/21 11:57:15;;;;;;;586.83;526.15;;;21.30;41.60;;;;;;4773379;55;21511;-36
2021/12/21 12:02:28;;;;;;;569.88;510.65;;;21.30;41.70;;;;;;4753843;55;21068;-31
2021/12/21 12:07:29;;;;;;;561.33;502.37;;;21.40;41.80;;;;;;4604446;54;22047;-29
2021/12/21 12:12:30;;;;;;;553.88;496.02;;;21.40;41.80;;;;;;4376681;60;21096;-34
2021/12/21 12:17:31;;;;;;;543.70;486.65;;;21.40;41.80;;;;;;4353723;60;21067;-33
2021/12/21 12:22:38;;;;;;;548.50;491.05;;;21.50;41.90;;;;;;4353549;60;22162;-35
2021/12/21 12:27:47;;;;;;;511.70;457.52;;;21.50;42.00;;;;;;4374360;60;21111;-35
2021/12/21 12:33:01;;;;;;;512.25;457.95;;;21.50;41.80;;;;;;4375326;60;21077;-35
2021/12/21 12:38:26;;;;;;;499.90;446.98;;;21.50;41.80;;;;;;4351229;60;21548;-32
2021/12/21 12:43:29;;;;;;;497.83;444.30;;;21.50;41.70;;;;;;4351177;60;21059;-35
2021/12/21 12:48:43;;;;;;;492.98;440.55;;;21.50;41.70;;;;;;4347247;60;21099;-35
2021/12/21 12:53:47;;;;;;;483.52;431.52;;;21.50;41.60;;;;;;4353029;60;21166;-36
2021/12/21 12:59:00;;;;;;;471.67;420.45;;;21.50;41.50;;;;;;4342087;60;21672;-35
2021/12/21 13:04:08;;;;;;;463.23;412.77;;;21.50;41.50;;;;;;4338246;64;21872;-35
2021/12/21 13:09:12;;;;;;;454.27;404.70;;;21.60;41.60;;;;;;4353205;60;21521;-35
2021/12/21 13:14:16;;;;;;;446.67;397.67;;;21.60;41.60;;;;;;4368366;60;21661;-34
2021/12/21 13:19:18;;;;;;;446.25;396.95;;;21.60;41.60;;;;;;4351380;60;21048;-34
2021/12/21 13:24:21;;;;;;;432.17;384.08;;;21.70;41.80;;;;;;4376253;60;21592;-35
2021/12/21 13:29:32;;;;;;;434.20;385.25;;;21.70;41.80;;;;;;4343380;60;21091;-34
2021/12/21 13:34:34;;;;;;;422.95;376.33;;;21.70;41.80;;;;;;4345608;60;21521;-34
2021/12/21 13:39:40;;;;;;;421.85;373.20;;;21.80;41.90;;;;;;4338577;64;21052;-29
2021/12/21 13:44:47;;;;;;;414.00;364.12;;;21.80;41.90;;;;;;4346586;60;21028;-36
2021/12/21 13:50:07;;;;;;;407.58;359.60;;;21.80;41.90;;;;;;4364034;60;21043;-37
2021/12/21 13:55:37;;;;;;;416.85;368.55;;;21.80;42.00;;;;;;4349802;60;21100;-36
2021/12/21 14:00:42;;;;;;;413.65;362.23;;;21.90;42.00;;;;;;4342554;60;21123;-35
2021/12/21 14:05:49;;;;;;;404.60;350.33;;;21.90;42.00;;;;;;4370725;60;21036;-34
2021/12/21 14:10:53;;;;;;;400.60;355.67;;;21.90;42.10;;;;;;4341242;60;21653;-34
2021/12/21 14:15:54;;;;;;;402.08;347.50;;;21.90;42.10;;;;;;4365590;60;21134;-36
2021/12/21 14:21:31;;;;;;;533.85;477.40;;;21.90;42.10;;;;;;4338852;64;21632;-36
2021/12/21 14:26:34;;;;;;;;;;;22.00;42.10;;;;;;4350030;60;21139;-36
2021/12/21 14:37:36;;;;;;;646.10;579.55;;;22.00;42.20;;;;;;4364841;60;21120;-36
2021/12/21 14:42:37;;;;;;;633.87;569.15;;;22.00;42.20;;;;;;4358485;60;21063;-32
2021/12/21 14:47:38;;;;;;;617.45;554.20;;;22.10;42.20;;;;;;4357935;60;21142;-34
2021/12/21 14:52:45;;;;;;;581.87;521.58;;;22.10;42.20;;;;;;4339814;64;21060;-43
2021/12/21 14:57:58;;;;;;;579.28;519.42;;;22.10;42.50;;;;;;4341162;60;21255;-36
2021/12/21 15:03:03;;;;;;;567.00;508.38;;;22.00;42.60;;;;;;4339306;64;21669;-35
2021/12/21 15:08:11;;;;;;;565.12;506.48;;;21.90;42.50;;;;;;4338668;60;21163;-36
2021/12/21 15:13:14;;;;;;;551.45;494.25;;;21.90;42.50;;;;;;4355041;60;21060;-36
2021/12/21 15:18:17;;;;;;;549.28;492.48;;;21.90;42.40;;;;;;4338502;64;21628;-34
2021/12/21 15:23:18;;;;;;;532.47;476.60;;;21.90;42.30;;;;;;4352867;60;21151;-34
2021/12/21 15:28:20;;;;;;;525.58;469.85;;;21.90;42.30;;;;;;4342019;60;21588;-34
2021/12/21 15:33:21;;;;;;;527.40;472.08;;;21.90;42.20;;;;;;4339510;64;21645;-34
2021/12/21 15:38:22;;;;;;;506.77;453.02;;;21.90;42.10;;;;;;4388833;60;21060;-35
2021/12/21 15:43:30;;;;;;;509.45;455.77;;;21.90;42.10;;;;;;4351285;60;22029;-30
2021/12/21 15:48:33;;;;;;;503.67;450.20;;;21.90;42.10;;;;;;4366404;60;22351;-33
2021/12/21 15:53:34;;;;;;;497.17;444.37;;;21.90;42.00;;;;;;4350012;60;21116;-36
2021/12/21 15:58:35;;;;;;;490.35;438.05;;;21.90;42.00;;;;;;4360772;60;21425;-32
2021/12/21 16:03:40;;;;;;;482.80;430.77;;;21.90;41.90;;;;;;4340276;60;21059;-32
2021/12/21 16:08:41;;;;;;;468.02;417.17;;;21.90;41.80;;;;;;4376823;60;21637;-35
2021/12/21 16:13:42;;;;;;;471.90;420.83;;;21.90;41.80;;;;;;4349572;60;21067;-37
2021/12/21 16:18:43;;;;;;;475.20;424.17;;;21.90;41.70;;;;;;4339818;60;21615;-34
2021/12/21 16:23:44;;;;;;;460.80;410.55;;;21.90;41.60;;;;;;4352828;60;21199;-35
2021/12/21 16:28:45;;;;;;;453.48;403.98;;;21.90;41.60;;;;;;4379022;60;21036;-35
2021/12/21 16:33:47;;;;;;;441.08;392.25;;;21.90;41.50;;;;;;4338899;61;21486;-32
2021/12/21 16:38:49;;;;;;;441.65;393.20;;;21.90;41.40;;;;;;4381779;60;21565;-36
2021/12/21 16:43:52;;;;;;;433.08;384.70;;;21.90;41.40;;;;;;4359787;60;21176;-37
2021/12/21 16:48:54;;;;;;;429.42;382.05;;;21.90;41.30;;;;;;4342521;60;21549;-34
2021/12/21 16:53:55;;;;;;;423.13;376.42;;;21.90;41.20;;;;;;4350836;60;21577;-34
2021/12/21 16:58:57;;;;;;;423.88;370.92;;;21.90;41.10;;;;;;4339249;60;21048;-35
2021/12/21 17:03:57;;;;;;;417.85;370.90;;;21.90;41.10;;;;;;4359133;60;21184;-36
2021/12/21 17:08:58;;;;;;;410.08;357.98;;;22.00;41.10;;;;;;4369426;60;21604;-35
2021/12/21 17:13:59;;;;;;;413.73;364.38;;;22.00;41.00;;;;;;4352651;60;21174;-32
2021/12/21 17:19:01;;;;;;;402.17;354.87;;;22.00;40.90;;;;;;4348188;60;21091;-37
2021/12/21 17:24:03;;;;;;;415.27;359.80;;;22.00;40.80;;;;;;4378084;60;21596;-35
2021/12/21 17:29:04;;;;;;;405.15;351.90;;;22.00;40.70;;;;;;4338765;61;21051;-34
2021/12/21 17:34:06;;;;;;;396.95;347.10;;;22.10;40.80;;;;;;4352271;60;21706;-32
2021/12/21 17:39:07;;;;;;;393.00;338.02;;;22.00;40.60;;;;;;4338836;64;21509;-35
2021/12/21 17:44:08;;;;;;;388.48;336.33;;;22.10;40.60;;;;;;4371943;60;21091;-35
2021/12/21 17:49:09;;;;;;;393.20;337.17;;;22.10;40.50;;;;;;4354357;60;21389;-35
2021/12/21 17:54:10;;;;;;;386.45;335.50;;;22.10;40.50;;;;;;4349632;60;21087;-31
2021/12/21 17:59:11;;;;;;;392.13;338.42;;;22.10;40.40;;;;;;4350270;60;21667;-35
2021/12/21 18:04:12;;;;;;;378.60;327.98;;;22.10;40.40;;;;;;4351422;60;21124;-34
2021/12/21 18:09:13;;;;;;;376.58;325.35;;;22.20;40.30;;;;;;4346012;60;21080;-36
2021/12/21 18:14:16;;;;;;;374.27;323.42;;;22.20;40.30;;;;;;4338683;64;21265;-34
2021/12/21 18:19:17;;;;;;;368.35;320.37;;;22.20;40.10;;;;;;4350122;60;21578;-36
2021/12/21 18:24:20;;;;;;;368.37;318.35;;;22.20;40.10;;;;;;4341633;60;21154;-34
2021/12/21 18:29:20;;;;;;;367.60;317.73;;;22.20;40.10;;;;;;4369343;60;21047;-34
2021/12/21 18:34:22;;;;;;;367.92;316.38;;;22.20;40.10;;;;;;4349297;60;21525;-32
2021/12/21 18:39:25;;;;;;;358.48;309.48;;;22.20;40.00;;;;;;4338721;64;21048;-32
2021/12/21 18:44:26;;;;;;;351.55;301.48;;;22.20;40.00;;;;;;4351539;60;21519;-34
2021/12/21 18:49:29;;;;;;;350.80;305.27;;;22.20;40.00;;;;;;4339040;61;21590;-37
2021/12/21 18:54:30;;;;;;;349.23;302.23;;;22.20;39.90;;;;;;4346308;60;21131;-35
2021/12/21 18:59:31;;;;;;;340.25;292.10;;;22.20;39.90;;;;;;4338755;64;21051;-35
2021/12/21 19:04:32;;;;;;;343.12;295.23;;;22.20;40.40;;;;;;4348515;60;21108;-36
2021/12/21 19:09:34;;;;;;;344.92;296.33;;;22.20;39.90;;;;;;4338931;64;21135;-34
2021/12/21 19:14:35;;;;;;;336.87;290.33;;;22.20;39.90;;;;;;4340029;60;21560;-35
2021/12/21 19:19:36;;;;;;;334.98;284.73;;;22.20;39.80;;;;;;4344905;60;21064;-37
2021/12/21 19:24:37;;;;;;;331.52;288.70;;;22.20;39.80;;;;;;4343567;60;21568;-34
2021/12/21 19:29:38;;;;;;;333.80;291.83;;;22.20;39.80;;;;;;4367791;60;21055;-35
2021/12/21 19:34:38;;;;;;;329.60;281.33;;;22.20;39.70;;;;;;4338846;64;21090;-38
2021/12/21 19:39:39;;;;;;;329.60;278.67;;;22.30;39.70;;;;;;4340294;60;21083;-36
2021/12/21 19:44:40;;;;;;;326.75;277.35;;;22.30;40.30;;;;;;4351995;60;21096;-37
2021/12/21 19:49:42;;;;;;;318.55;270.35;;;22.30;39.70;;;;;;4348933;60;21593;-35
2021/12/21 19:54:43;;;;;;;315.45;267.23;;;22.30;39.60;;;;;;4339411;64;21613;-34
2021/12/21 19:59:44;;;;;;;310.30;268.08;;;22.30;39.60;;;;;;4345496;60;21137;-36
2021/12/21 20:04:45;;;;;;;315.95;267.73;;;22.30;39.50;;;;;;4367625;60;21080;-35
2021/12/21 20:09:45;;;;;;;306.15;261.10;;;22.30;39.50;;;;;;4339253;64;21510;-36
2021/12/21 20:14:47;;;;;;;313.15;263.17;;;22.30;39.40;;;;;;4358665;60;21144;-37
2021/12/21 20:19:49;;;;;;;299.75;254.90;;;22.30;39.40;;;;;;4353177;60;21481;-37
2021/12/21 20:24:50;;;;;;;295.37;252.00;;;22.30;39.30;;;;;;4343227;60;21613;-36
2021/12/21 20:29:52;;;;;;;300.27;254.32;;;22.40;39.30;;;;;;4345073;60;21051;-38
2021/12/21 20:34:53;;;;;;;301.33;252.45;;;22.30;39.20;;;;;;4338643;64;21087;-37
2021/12/21 20:39:54;;;;;;;292.65;248.73;;;22.40;39.30;;;;;;4339330;64;21052;-37
2021/12/21 20:44:55;;;;;;;279.48;236.15;;;22.40;39.10;;;;;;4365471;60;21119;-36
2021/12/21 20:49:56;;;;;;;284.52;241.18;;;22.40;39.10;;;;;;4347352;60;21573;-36
2021/12/21 20:54:57;;;;;;;287.15;242.60;;;22.40;39.10;;;;;;4351840;60;21055;-36
2021/12/21 20:59:58;;;;;;;279.90;236.43;;;22.40;39.00;;;;;;4345627;60;21059;-37
2021/12/21 21:04:59;;;;;;;276.48;232.23;;;22.40;39.10;;;;;;4347237;60;21091;-37
2021/12/21 21:09:59;;;;;;;280.45;232.12;;;22.40;38.90;;;;;;4349276;60;21552;-36
2021/12/21 21:15:00;;;;;;;273.95;231.15;;;22.40;38.90;;;;;;4338263;64;21068;-34
2021/12/21 21:20:04;;;;;;;272.90;229.93;;;22.40;38.80;;;;;;4354561;60;22327;-36
2021/12/21 21:25:06;;;;;;;273.45;225.77;;;22.40;38.80;;;;;;4345585;60;21087;-35
2021/12/21 21:30:09;;;;;;;268.63;225.52;;;22.50;38.70;;;;;;4377107;60;21040;-37
2021/12/21 21:35:10;;;;;;;265.42;220.43;;;22.50;38.70;;;;;;4364896;60;21047;-34
2021/12/21 21:40:12;;;;;;;264.02;220.25;;;22.50;38.60;;;;;;4339289;64;21176;-32
2021/12/21 21:45:14;;;;;;;262.17;217.75;;;22.50;38.50;;;;;;4341630;60;21700;-35
2021/12/21 21:50:16;;;;;;;255.80;213.82;;;22.50;38.50;;;;;;4348504;60;21063;-38
2021/12/21 21:55:17;;;;;;;253.35;207.70;;;22.50;38.40;;;;;;4339957;60;21537;-35
2021/12/21 22:00:18;;;;;;;250.62;205.60;;;22.50;38.40;;;;;;4345059;60;21071;-35
2021/12/21 22:05:19;;;;;;;240.98;194.05;;;22.60;38.30;;;;;;4339632;61;21055;-35
2021/12/21 22:10:20;;;;;;;243.88;203.05;;;22.60;38.30;;;;;;4346782;60;21079;-36
2021/12/21 22:15:21;;;;;;;250.00;202.60;;;22.60;38.30;;;;;;4338545;60;21557;-36
2021/12/21 22:20:22;;;;;;;238.77;193.75;;;22.60;38.20;;;;;;4362824;60;21052;-35
2021/12/21 22:25:22;;;;;;;244.43;199.07;;;22.60;38.20;;;;;;4343861;60;21099;-35
2021/12/21 22:30:23;;;;;;;236.23;188.07;;;22.60;38.20;;;;;;4358253;60;21717;-35
2021/12/21 22:35:24;;;;;;;235.65;187.95;;;22.50;38.20;;;;;;4342925;60;21568;-34
2021/12/21 22:40:25;;;;;;;231.85;185.95;;;22.50;38.90;;;;;;4350924;60;21506;-38
2021/12/21 22:45:26;;;;;;;235.77;190.68;;;22.40;38.30;;;;;;4341492;60;21128;-37
2021/12/21 22:50:27;;;;;;;228.40;184.60;;;22.40;38.30;;;;;;4352753;60;21043;-36
2021/12/21 22:55:30;;;;;;;230.80;185.32;;;22.40;38.30;;;;;;4344097;60;21063;-34
2021/12/21 23:00:34;;;;;;;227.38;179.48;;;22.40;38.30;;;;;;4378974;60;21136;-37
2021/12/21 23:05:36;;;;;;;230.77;181.52;;;22.40;38.30;;;;;;4401041;60;21108;-35
2021/12/21 23:10:39;;;;;;;225.15;178.38;;;22.30;38.30;;;;;;4349142;60;21157;-35
2021/12/21 23:15:40;;;;;;;219.77;174.07;;;22.30;38.30;;;;;;4358229;60;21107;-36
2021/12/21 23:20:41;;;;;;;225.75;177.77;;;22.30;38.30;;;;;;4349672;60;21607;-35
2021/12/21 23:25:42;;;;;;;216.30;173.00;;;22.30;38.20;;;;;;4340515;60;21079;-35
2021/12/21 23:30:43;;;;;;;219.80;168.98;;;22.30;38.80;;;;;;4352639;60;21096;-35
2021/12/21 23:35:44;;;;;;;224.50;174.20;;;22.30;38.20;;;;;;4338736;64;21063;-35
2021/12/21 23:40:45;;;;;;;216.25;168.15;;;22.30;38.40;;;;;;4359817;60;21552;-34
2021/12/21 23:45:46;;;;;;;211.60;162.80;;;22.30;38.20;;;;;;4338531;64;21106;-33
2021/12/21 23:50:47;;;;;;;216.82;166.62;;;22.30;38.20;;;;;;4344248;60;21629;-35
2021/12/21 23:55:48;;;;;;;213.90;162.00;;;22.30;38.20;;;;;;4370970;60;21087;-35
